Terminal Aerodrome Forecast
Issued by NWS Goodland, KS

Home | Current Version | Previous Version | Text Only | Print | Product List | Glossary On
Versions: 1 2 3 4 5 6 7 8 9 10 11 12 13 14 15 16 17 18
000
FTUS43 KGLD 211700
TAFGLD
TAF
KGLD 211720Z 2118/2218 23010KT P6SM BKN150
     FM212000 20009KT P6SM VCTS FEW120CB BKN200
     FM220300 18007KT P6SM SCT120 BKN220
     FM220900 23008KT P6SM SCT220
     FM221400 35009KT P6SM FEW250
     FM221700 02010KT P6SM SKC=

USA.gov is the U.S. government's official web portal to all federal, state and local government web resources and services.